VIJP/JAI METAR and TAF weather

Enter ICAO airport designator
Station Type Date Time Source
VIJP METAR 2020/01/27 11:00 UTC NOAA

VIJP 271100Z 13005KT 4000 HZ SCT030 25/09 Q1009 NOSIG


Station Type Date Time Source
VIJP Decoded METAR 2020/01/27 11:00 UTC NOAA

Jaipur / Sanganer, India (VIJP) 26-49N 075-48E 390M
Jan 27, 2020 - 06:00 AM EST / 2020.01.27 1100 UTC
Wind: from the SE (130 degrees) at 6 MPH (5 KT):0
Visibility: 2 mile(s):0
Sky conditions: partly cloudy
Weather: haze
Temperature: 77 F (25 C)
Dew Point: 48 F (9 C)
Relative Humidity: 36%
Pressure (altimeter): 29.80 in. Hg (1009 hPa)
ob: VIJP 271100Z 13005KT 4000 HZ SCT030 25/09 Q1009 NOSIG
cycle: 11

Station Type Date Time Source
VIJP TAF 2020/01/27 06:00 UTC NOAA

TAF VIJP 270500Z 2706/2812 14005KT 4000 HZ FEW035
BECMG 2712/2714 19005KT 2000 HZ FEW035 SCT100
BECMG 2800/2802 VRB02KT 1500 HZ SCT030 SCT100
BECMG 2804/2806 07005KT 3000 HZ SCT030 BKN100

Example: see airport list